sensor_id;sensor_type;location;lat;lon;timestamp;pressure;altitude;pressure_sealevel;temperature;humidity
61384;BME280;63511;49.346;8.798;2023-05-09T00:01:27;100462.97;;;17.15;84.86
61384;BME280;63511;49.346;8.798;2023-05-09T00:03:57;100448.13;;;17.46;83.05
61384;BME280;63511;49.346;8.798;2023-05-09T00:06:24;100457.50;;;17.26;83.58
61384;BME280;63511;49.346;8.798;2023-05-09T00:08:51;100463.38;;;16.85;86.30
61384;BME280;63511;49.346;8.798;2023-05-09T00:11:18;100455.72;;;17.24;85.06
61384;BME280;63511;49.346;8.798;2023-05-09T00:13:45;100450.81;;;17.49;83.29
61384;BME280;63511;49.346;8.798;2023-05-09T00:16:13;100444.50;;;17.41;83.29
61384;BME280;63511;49.346;8.798;2023-05-09T00:18:41;100442.19;;;17.26;83.42
61384;BME280;63511;49.346;8.798;2023-05-09T00:21:07;100438.66;;;17.23;84.46
61384;BME280;63511;49.346;8.798;2023-05-09T00:23:35;100436.16;;;17.24;84.98
61384;BME280;63511;49.346;8.798;2023-05-09T00:26:01;100437.69;;;17.21;85.19
61384;BME280;63511;49.346;8.798;2023-05-09T00:28:28;100431.25;;;17.29;84.69
61384;BME280;63511;49.346;8.798;2023-05-09T00:30:54;100426.25;;;17.53;83.48
61384;BME280;63511;49.346;8.798;2023-05-09T00:33:20;100428.16;;;17.17;85.04
61384;BME280;63511;49.346;8.798;2023-05-09T00:35:52;100420.59;;;17.39;84.75
61384;BME280;63511;49.346;8.798;2023-05-09T00:38:18;100426.88;;;17.47;84.44
61384;BME280;63511;49.346;8.798;2023-05-09T00:40:45;100426.03;;;17.67;82.60
61384;BME280;63511;49.346;8.798;2023-05-09T00:43:11;100424.28;;;17.46;83.80
61384;BME280;63511;49.346;8.798;2023-05-09T00:45:40;100419.41;;;17.52;83.28
61384;BME280;63511;49.346;8.798;2023-05-09T00:48:07;100424.59;;;17.53;82.69
61384;BME280;63511;49.346;8.798;2023-05-09T00:50:34;100418.84;;;17.38;83.61
61384;BME280;63511;49.346;8.798;2023-05-09T00:53:03;100415.75;;;17.45;83.41
61384;BME280;63511;49.346;8.798;2023-05-09T00:55:30;100416.94;;;17.53;82.62
61384;BME280;63511;49.346;8.798;2023-05-09T00:57:56;100411.00;;;17.54;82.71
61384;BME280;63511;49.346;8.798;2023-05-09T01:00:23;100414.91;;;17.46;83.06
61384;BME280;63511;49.346;8.798;2023-05-09T01:02:50;100409.69;;;17.43;82.85
61384;BME280;63511;49.346;8.798;2023-05-09T01:05:19;100413.94;;;17.42;83.24
61384;BME280;63511;49.346;8.798;2023-05-09T01:07:48;100412.75;;;17.34;83.77
61384;BME280;63511;49.346;8.798;2023-05-09T01:10:20;100412.16;;;17.40;83.66
61384;BME280;63511;49.346;8.798;2023-05-09T01:12:48;100416.56;;;17.44;83.38
61384;BME280;63511;49.346;8.798;2023-05-09T01:15:20;100416.22;;;17.57;82.49
61384;BME280;63511;49.346;8.798;2023-05-09T01:17:51;100411.75;;;17.31;83.53
61384;BME280;63511;49.346;8.798;2023-05-09T01:20:19;100404.16;;;17.32;83.76
61384;BME280;63511;49.346;8.798;2023-05-09T01:22:50;100407.91;;;17.00;85.69
61384;BME280;63511;49.346;8.798;2023-05-09T01:28:03;100402.56;;;17.15;85.41
61384;BME280;63511;49.346;8.798;2023-05-09T01:30:34;100396.44;;;17.31;84.88
61384;BME280;63511;49.346;8.798;2023-05-09T01:33:06;100398.97;;;17.31;83.71
61384;BME280;63511;49.346;8.798;2023-05-09T01:35:34;100393.25;;;17.36;83.42
61384;BME280;63511;49.346;8.798;2023-05-09T01:38:10;100399.38;;;17.00;85.73
61384;BME280;63511;49.346;8.798;2023-05-09T01:40:37;100389.25;;;17.02;86.05
61384;BME280;63511;49.346;8.798;2023-05-09T01:43:06;100395.72;;;16.93;86.54
61384;BME280;63511;49.346;8.798;2023-05-09T01:45:35;100388.28;;;17.19;85.21
61384;BME280;63511;49.346;8.798;2023-05-09T01:48:03;100380.28;;;17.30;85.19
61384;BME280;63511;49.346;8.798;2023-05-09T01:50:32;100379.94;;;17.23;85.00
61384;BME280;63511;49.346;8.798;2023-05-09T01:53:00;100371.53;;;17.25;85.20
61384;BME280;63511;49.346;8.798;2023-05-09T01:55:29;100375.81;;;17.26;85.74
61384;BME280;63511;49.346;8.798;2023-05-09T01:57:57;100369.84;;;17.05;86.78
61384;BME280;63511;49.346;8.798;2023-05-09T02:00:25;100368.22;;;17.07;87.03
61384;BME280;63511;49.346;8.798;2023-05-09T02:02:53;100379.16;;;16.84;88.42
61384;BME280;63511;49.346;8.798;2023-05-09T02:05:20;100383.03;;;16.76;89.36
61384;BME280;63511;49.346;8.798;2023-05-09T02:07:51;100379.56;;;17.14;87.02
61384;BME280;63511;49.346;8.798;2023-05-09T02:10:21;100381.94;;;17.30;85.78
61384;BME280;63511;49.346;8.798;2023-05-09T02:12:49;100383.00;;;17.35;85.57
61384;BME280;63511;49.346;8.798;2023-05-09T02:15:15;100375.72;;;17.44;84.65
61384;BME280;63511;49.346;8.798;2023-05-09T02:17:42;100378.19;;;17.22;85.72
61384;BME280;63511;49.346;8.798;2023-05-09T02:20:10;100376.88;;;17.31;85.79
61384;BME280;63511;49.346;8.798;2023-05-09T02:22:37;100373.16;;;17.44;84.24
61384;BME280;63511;49.346;8.798;2023-05-09T02:25:05;100375.16;;;17.30;84.88
61384;BME280;63511;49.346;8.798;2023-05-09T02:27:32;100368.97;;;17.25;86.22
61384;BME280;63511;49.346;8.798;2023-05-09T02:30:00;100366.81;;;17.34;84.96
61384;BME280;63511;49.346;8.798;2023-05-09T02:32:29;100357.16;;;17.07;86.63
61384;BME280;63511;49.346;8.798;2023-05-09T02:34:56;100354.78;;;17.32;85.10
61384;BME280;63511;49.346;8.798;2023-05-09T02:37:24;100355.03;;;17.38;84.90
61384;BME280;63511;49.346;8.798;2023-05-09T02:39:51;100355.28;;;17.44;84.64
61384;BME280;63511;49.346;8.798;2023-05-09T02:42:19;100357.66;;;17.19;86.39
61384;BME280;63511;49.346;8.798;2023-05-09T02:44:46;100358.13;;;17.10;87.24
61384;BME280;63511;49.346;8.798;2023-05-09T02:47:13;100364.06;;;17.09;87.48
61384;BME280;63511;49.346;8.798;2023-05-09T02:49:39;100364.94;;;17.30;86.28
61384;BME280;63511;49.346;8.798;2023-05-09T02:52:06;100362.44;;;17.53;84.74
61384;BME280;63511;49.346;8.798;2023-05-09T02:54:34;100355.00;;;17.59;84.45
61384;BME280;63511;49.346;8.798;2023-05-09T02:57:00;100357.66;;;17.60;84.04
61384;BME280;63511;49.346;8.798;2023-05-09T02:59:27;100357.06;;;17.67;83.83
61384;BME280;63511;49.346;8.798;2023-05-09T03:01:53;100357.91;;;17.66;83.79
61384;BME280;63511;49.346;8.798;2023-05-09T03:04:20;100355.47;;;17.28;86.15
61384;BME280;63511;49.346;8.798;2023-05-09T03:06:49;100346.81;;;17.45;85.59
61384;BME280;63511;49.346;8.798;2023-05-09T03:09:16;100341.75;;;17.67;84.58
61384;BME280;63511;49.346;8.798;2023-05-09T03:11:43;100345.25;;;17.69;84.20
61384;BME280;63511;49.346;8.798;2023-05-09T03:14:13;100347.56;;;17.63;83.98
61384;BME280;63511;49.346;8.798;2023-05-09T03:16:40;100347.91;;;17.72;83.77
61384;BME280;63511;49.346;8.798;2023-05-09T03:19:06;100342.31;;;17.81;82.97
61384;BME280;63511;49.346;8.798;2023-05-09T03:21:32;100338.53;;;17.51;85.70
61384;BME280;63511;49.346;8.798;2023-05-09T03:24:02;100338.28;;;17.65;85.51
61384;BME280;63511;49.346;8.798;2023-05-09T03:26:29;100322.84;;;17.84;83.28
61384;BME280;63511;49.346;8.798;2023-05-09T03:28:57;100326.91;;;17.79;83.36
61384;BME280;63511;49.346;8.798;2023-05-09T03:31:23;100321.91;;;17.60;84.37
61384;BME280;63511;49.346;8.798;2023-05-09T03:33:56;100326.03;;;17.79;83.63
61384;BME280;63511;49.346;8.798;2023-05-09T03:36:22;100327.38;;;17.69;84.38
61384;BME280;63511;49.346;8.798;2023-05-09T03:38:49;100325.28;;;17.59;84.79
61384;BME280;63511;49.346;8.798;2023-05-09T03:41:16;100323.00;;;17.67;85.09
61384;BME280;63511;49.346;8.798;2023-05-09T03:43:43;100310.81;;;17.60;85.68
61384;BME280;63511;49.346;8.798;2023-05-09T03:46:11;100310.84;;;17.82;84.00
61384;BME280;63511;49.346;8.798;2023-05-09T03:48:38;100314.47;;;17.89;83.46
61384;BME280;63511;49.346;8.798;2023-05-09T03:51:04;100317.38;;;17.75;84.13
61384;BME280;63511;49.346;8.798;2023-05-09T03:53:31;100316.84;;;17.62;84.91
61384;BME280;63511;49.346;8.798;2023-05-09T03:55:57;100320.28;;;17.84;83.88
61384;BME280;63511;49.346;8.798;2023-05-09T03:58:24;100326.69;;;17.53;85.44
61384;BME280;63511;49.346;8.798;2023-05-09T04:00:50;100320.50;;;17.68;85.47
61384;BME280;63511;49.346;8.798;2023-05-09T04:03:19;100322.84;;;17.84;84.62
61384;BME280;63511;49.346;8.798;2023-05-09T04:05:46;100325.97;;;17.77;85.03
61384;BME280;63511;49.346;8.798;2023-05-09T04:08:12;100323.84;;;17.66;86.10
61384;BME280;63511;49.346;8.798;2023-05-09T04:10:39;100316.75;;;17.81;84.04
61384;BME280;63511;49.346;8.798;2023-05-09T04:13:05;100316.34;;;17.93;83.56
61384;BME280;63511;49.346;8.798;2023-05-09T04:15:32;100321.16;;;17.85;83.56
61384;BME280;63511;49.346;8.798;2023-05-09T04:17:59;100318.91;;;17.93;83.27
61384;BME280;63511;49.346;8.798;2023-05-09T04:20:27;100314.53;;;17.90;83.61
61384;BME280;63511;49.346;8.798;2023-05-09T04:22:53;100316.38;;;17.94;83.12
61384;BME280;63511;49.346;8.798;2023-05-09T04:25:19;100309.34;;;18.11;82.37
61384;BME280;63511;49.346;8.798;2023-05-09T04:27:46;100313.47;;;18.07;82.61
61384;BME280;63511;49.346;8.798;2023-05-09T04:30:13;100318.47;;;18.04;82.75
61384;BME280;63511;49.346;8.798;2023-05-09T04:32:40;100315.03;;;18.04;82.99
61384;BME280;63511;49.346;8.798;2023-05-09T04:35:09;100310.69;;;18.01;82.89
61384;BME280;63511;49.346;8.798;2023-05-09T04:37:37;100317.31;;;17.96;83.10
61384;BME280;63511;49.346;8.798;2023-05-09T04:40:04;100323.13;;;17.92;83.58
61384;BME280;63511;49.346;8.798;2023-05-09T04:42:33;100320.03;;;18.01;83.35
61384;BME280;63511;49.346;8.798;2023-05-09T04:45:00;100312.63;;;18.08;83.08
61384;BME280;63511;49.346;8.798;2023-05-09T04:47:27;100319.00;;;18.18;82.54
61384;BME280;63511;49.346;8.798;2023-05-09T04:49:53;100318.13;;;17.95;83.45
61384;BME280;63511;49.346;8.798;2023-05-09T04:52:19;100318.75;;;18.12;82.63
61384;BME280;63511;49.346;8.798;2023-05-09T04:54:48;100326.13;;;18.04;82.87
61384;BME280;63511;49.346;8.798;2023-05-09T04:57:14;100316.69;;;18.25;82.48
61384;BME280;63511;49.346;8.798;2023-05-09T04:59:41;100319.31;;;18.27;82.63
61384;BME280;63511;49.346;8.798;2023-05-09T05:02:09;100311.25;;;17.93;84.57
61384;BME280;63511;49.346;8.798;2023-05-09T05:04:36;100298.31;;;18.12;84.11
61384;BME280;63511;49.346;8.798;2023-05-09T05:07:03;100308.28;;;17.82;85.33
61384;BME280;63511;49.346;8.798;2023-05-09T05:09:30;100315.41;;;17.68;86.29
61384;BME280;63511;49.346;8.798;2023-05-09T05:11:58;100305.97;;;18.12;84.05
61384;BME280;63511;49.346;8.798;2023-05-09T05:14:24;100300.69;;;18.31;82.94
61384;BME280;63511;49.346;8.798;2023-05-09T05:16:51;100298.47;;;18.16;83.34
61384;BME280;63511;49.346;8.798;2023-05-09T05:19:17;100291.78;;;18.20;83.75
61384;BME280;63511;49.346;8.798;2023-05-09T05:21:44;100294.22;;;18.41;82.92
61384;BME280;63511;49.346;8.798;2023-05-09T05:24:10;100292.03;;;18.04;85.34
61384;BME280;63511;49.346;8.798;2023-05-09T05:26:37;100290.22;;;18.23;83.80
61384;BME280;63511;49.346;8.798;2023-05-09T05:29:09;100293.75;;;18.27;84.21
61384;BME280;63511;49.346;8.798;2023-05-09T05:31:35;100288.88;;;18.35;83.80
61384;BME280;63511;49.346;8.798;2023-05-09T05:34:02;100286.59;;;18.42;83.80
61384;BME280;63511;49.346;8.798;2023-05-09T05:36:28;100288.66;;;18.52;84.08
61384;BME280;63511;49.346;8.798;2023-05-09T05:38:55;100290.19;;;18.47;84.48
61384;BME280;63511;49.346;8.798;2023-05-09T05:41:22;100290.53;;;18.56;82.79
61384;BME280;63511;49.346;8.798;2023-05-09T05:43:49;100289.16;;;18.42;83.24
61384;BME280;63511;49.346;8.798;2023-05-09T05:46:17;100286.81;;;18.48;82.53
61384;BME280;63511;49.346;8.798;2023-05-09T05:48:43;100286.00;;;18.49;82.44
61384;BME280;63511;49.346;8.798;2023-05-09T05:51:10;100285.44;;;18.56;82.44
61384;BME280;63511;49.346;8.798;2023-05-09T05:53:36;100288.41;;;18.68;82.78
61384;BME280;63511;49.346;8.798;2023-05-09T05:56:03;100289.94;;;18.63;83.79
61384;BME280;63511;49.346;8.798;2023-05-09T05:58:29;100284.88;;;18.65;82.74
61384;BME280;63511;49.346;8.798;2023-05-09T06:00:56;100286.56;;;18.64;82.92
61384;BME280;63511;49.346;8.798;2023-05-09T06:03:27;100279.91;;;18.70;82.78
61384;BME280;63511;49.346;8.798;2023-05-09T06:05:53;100280.53;;;18.62;82.56
61384;BME280;63511;49.346;8.798;2023-05-09T06:08:20;100283.47;;;18.49;83.62
61384;BME280;63511;49.346;8.798;2023-05-09T06:10:47;100285.94;;;18.72;81.91
61384;BME280;63511;49.346;8.798;2023-05-09T06:13:13;100281.00;;;18.52;81.85
61384;BME280;63511;49.346;8.798;2023-05-09T06:15:42;100288.25;;;18.64;81.54
61384;BME280;63511;49.346;8.798;2023-05-09T06:18:09;100280.94;;;18.75;81.08
61384;BME280;63511;49.346;8.798;2023-05-09T06:20:39;100278.31;;;18.73;80.85
61384;BME280;63511;49.346;8.798;2023-05-09T06:23:06;100274.59;;;18.89;79.90
61384;BME280;63511;49.346;8.798;2023-05-09T06:25:32;100274.31;;;18.81;81.76
61384;BME280;63511;49.346;8.798;2023-05-09T06:27:59;100272.69;;;18.58;80.84
61384;BME280;63511;49.346;8.798;2023-05-09T06:30:27;100270.84;;;18.54;81.68
61384;BME280;63511;49.346;8.798;2023-05-09T06:32:54;100271.22;;;18.64;82.98
61384;BME280;63511;49.346;8.798;2023-05-09T06:35:22;100265.41;;;18.21;85.84
61384;BME280;63511;49.346;8.798;2023-05-09T06:37:49;100263.81;;;18.24;84.47
61384;BME280;63511;49.346;8.798;2023-05-09T06:40:16;100259.28;;;18.41;83.67
61384;BME280;63511;49.346;8.798;2023-05-09T06:42:43;100255.84;;;18.39;83.09
61384;BME280;63511;49.346;8.798;2023-05-09T06:45:09;100262.41;;;18.56;82.51
61384;BME280;63511;49.346;8.798;2023-05-09T06:47:36;100254.31;;;18.46;84.16
61384;BME280;63511;49.346;8.798;2023-05-09T06:50:03;100259.03;;;18.57;81.97
61384;BME280;63511;49.346;8.798;2023-05-09T06:52:29;100257.63;;;18.92;80.99
61384;BME280;63511;49.346;8.798;2023-05-09T06:54:57;100255.03;;;18.65;82.63
61384;BME280;63511;49.346;8.798;2023-05-09T06:57:24;100257.41;;;19.12;82.21
61384;BME280;63511;49.346;8.798;2023-05-09T06:59:51;100257.25;;;18.80;83.25
61384;BME280;63511;49.346;8.798;2023-05-09T07:02:18;100254.13;;;18.63;82.50
61384;BME280;63511;49.346;8.798;2023-05-09T07:04:44;100246.94;;;18.53;83.14
61384;BME280;63511;49.346;8.798;2023-05-09T07:07:11;100245.28;;;18.54;83.44
61384;BME280;63511;49.346;8.798;2023-05-09T07:09:37;100245.16;;;18.76;80.97
61384;BME280;63511;49.346;8.798;2023-05-09T07:12:06;100235.69;;;18.74;80.24
61384;BME280;63511;49.346;8.798;2023-05-09T07:14:32;100236.47;;;18.71;80.61
61384;BME280;63511;49.346;8.798;2023-05-09T07:16:59;100228.91;;;19.01;80.46
61384;BME280;63511;49.346;8.798;2023-05-09T07:19:26;100226.84;;;18.89;81.26
61384;BME280;63511;49.346;8.798;2023-05-09T07:21:52;100226.34;;;18.74;82.77
61384;BME280;63511;49.346;8.798;2023-05-09T07:24:19;100229.16;;;19.08;81.53
61384;BME280;63511;49.346;8.798;2023-05-09T07:26:45;100223.06;;;19.60;79.07
61384;BME280;63511;49.346;8.798;2023-05-09T07:29:13;100221.38;;;19.34;80.34
61384;BME280;63511;49.346;8.798;2023-05-09T07:31:40;100209.69;;;19.42;80.67
61384;BME280;63511;49.346;8.798;2023-05-09T07:34:06;100209.72;;;19.15;82.01
61384;BME280;63511;49.346;8.798;2023-05-09T07:36:33;100203.13;;;18.95;82.89
61384;BME280;63511;49.346;8.798;2023-05-09T07:39:01;100200.22;;;19.11;79.94
61384;BME280;63511;49.346;8.798;2023-05-09T07:41:28;100193.69;;;19.47;78.65
61384;BME280;63511;49.346;8.798;2023-05-09T07:43:55;100187.34;;;19.38;79.25
61384;BME280;63511;49.346;8.798;2023-05-09T07:46:23;100188.22;;;19.38;80.60
61384;BME280;63511;49.346;8.798;2023-05-09T07:48:50;100195.31;;;19.45;79.81
61384;BME280;63511;49.346;8.798;2023-05-09T07:51:16;100198.16;;;19.86;78.58
61384;BME280;63511;49.346;8.798;2023-05-09T07:53:43;100194.25;;;20.30;74.76
61384;BME280;63511;49.346;8.798;2023-05-09T07:59:08;100182.59;;;19.78;79.19
61384;BME280;63511;49.346;8.798;2023-05-09T08:01:45;100171.50;;;19.79;77.98
61384;BME280;63511;49.346;8.798;2023-05-09T08:04:17;100172.84;;;19.38;78.90
61384;BME280;63511;49.346;8.798;2023-05-09T08:06:44;100178.72;;;19.34;79.52
61384;BME280;63511;49.346;8.798;2023-05-09T08:09:10;100176.91;;;19.90;75.47
61384;BME280;63511;49.346;8.798;2023-05-09T08:11:37;100170.94;;;20.22;74.53
61384;BME280;63511;49.346;8.798;2023-05-09T08:14:03;100174.34;;;19.30;79.46
61384;BME280;63511;49.346;8.798;2023-05-09T08:16:30;100169.72;;;18.90;81.06
61384;BME280;63511;49.346;8.798;2023-05-09T08:18:58;100158.41;;;19.10;80.25
61384;BME280;63511;49.346;8.798;2023-05-09T08:21:24;100161.47;;;19.27;79.32
61384;BME280;63511;49.346;8.798;2023-05-09T08:23:51;100153.34;;;19.42;78.99
61384;BME280;63511;49.346;8.798;2023-05-09T08:26:17;100150.53;;;20.25;76.95
61384;BME280;63511;49.346;8.798;2023-05-09T08:28:46;100143.22;;;20.08;77.98
61384;BME280;63511;49.346;8.798;2023-05-09T08:31:13;100144.19;;;19.80;78.21
61384;BME280;63511;49.346;8.798;2023-05-09T08:33:39;100139.59;;;20.00;76.15
61384;BME280;63511;49.346;8.798;2023-05-09T08:36:08;100138.81;;;20.02;78.06
61384;BME280;63511;49.346;8.798;2023-05-09T08:38:34;100133.75;;;20.05;77.23
61384;BME280;63511;49.346;8.798;2023-05-09T08:41:04;100123.88;;;20.53;74.56
61384;BME280;63511;49.346;8.798;2023-05-09T08:43:31;100121.91;;;20.77;74.90
61384;BME280;63511;49.346;8.798;2023-05-09T08:45:59;100118.72;;;20.89;74.58
61384;BME280;63511;49.346;8.798;2023-05-09T08:48:26;100113.28;;;21.14;74.42
61384;BME280;63511;49.346;8.798;2023-05-09T08:50:53;100120.81;;;21.07;74.41
61384;BME280;63511;49.346;8.798;2023-05-09T08:53:21;100113.91;;;21.04;74.36
61384;BME280;63511;49.346;8.798;2023-05-09T08:55:48;100110.94;;;21.24;70.30
61384;BME280;63511;49.346;8.798;2023-05-09T08:58:15;100112.78;;;20.93;70.78
61384;BME280;63511;49.346;8.798;2023-05-09T09:00:43;100116.63;;;20.73;75.18
61384;BME280;63511;49.346;8.798;2023-05-09T09:03:10;100106.97;;;21.00;74.85
61384;BME280;63511;49.346;8.798;2023-05-09T09:05:37;100102.97;;;20.74;75.05
61384;BME280;63511;49.346;8.798;2023-05-09T09:08:07;100099.56;;;20.75;76.05
61384;BME280;63511;49.346;8.798;2023-05-09T09:10:38;100092.34;;;20.96;74.46
61384;BME280;63511;49.346;8.798;2023-05-09T09:13:05;100089.34;;;21.57;70.48
61384;BME280;63511;49.346;8.798;2023-05-09T09:15:33;100083.56;;;21.26;72.36
61384;BME280;63511;49.346;8.798;2023-05-09T09:18:02;100071.47;;;21.63;73.16
61384;BME280;63511;49.346;8.798;2023-05-09T09:20:30;100076.50;;;21.57;72.87
61384;BME280;63511;49.346;8.798;2023-05-09T09:22:59;100069.38;;;21.04;73.65
61384;BME280;63511;49.346;8.798;2023-05-09T09:25:26;100061.34;;;21.28;73.00
61384;BME280;63511;49.346;8.798;2023-05-09T09:27:54;100053.31;;;21.54;72.14
61384;BME280;63511;49.346;8.798;2023-05-09T09:30:22;100055.75;;;21.48;72.83
61384;BME280;63511;49.346;8.798;2023-05-09T09:32:49;100049.28;;;21.69;72.24
61384;BME280;63511;49.346;8.798;2023-05-09T09:35:16;100052.75;;;21.26;74.09
61384;BME280;63511;49.346;8.798;2023-05-09T09:37:44;100039.63;;;21.57;72.07
61384;BME280;63511;49.346;8.798;2023-05-09T09:40:11;100033.72;;;22.68;68.82
61384;BME280;63511;49.346;8.798;2023-05-09T09:42:44;100031.09;;;22.63;69.53
61384;BME280;63511;49.346;8.798;2023-05-09T09:45:15;100047.88;;;21.87;70.85
61384;BME280;63511;49.346;8.798;2023-05-09T09:47:55;100032.53;;;22.43;69.43
61384;BME280;63511;49.346;8.798;2023-05-09T09:50:22;100031.69;;;21.91;70.45
61384;BME280;63511;49.346;8.798;2023-05-09T09:52:52;100032.69;;;21.99;71.01
61384;BME280;63511;49.346;8.798;2023-05-09T09:55:20;100029.19;;;22.49;67.84
61384;BME280;63511;49.346;8.798;2023-05-09T09:57:51;100022.81;;;22.85;65.08
61384;BME280;63511;49.346;8.798;2023-05-09T10:00:27;100022.00;;;22.28;70.05
61384;BME280;63511;49.346;8.798;2023-05-09T10:03:08;100014.38;;;22.94;65.39
61384;BME280;63511;49.346;8.798;2023-05-09T10:05:39;100015.25;;;22.36;69.34
61384;BME280;63511;49.346;8.798;2023-05-09T10:08:06;100004.44;;;22.60;67.69
61384;BME280;63511;49.346;8.798;2023-05-09T10:10:33;99999.69;;;22.88;67.14
61384;BME280;63511;49.346;8.798;2023-05-09T10:13:05;99996.94;;;22.75;67.78
61384;BME280;63511;49.346;8.798;2023-05-09T10:15:35;99992.81;;;22.87;67.26
61384;BME280;63511;49.346;8.798;2023-05-09T10:18:02;99995.16;;;22.69;67.19
61384;BME280;63511;49.346;8.798;2023-05-09T10:20:32;99986.22;;;22.44;67.91
61384;BME280;63511;49.346;8.798;2023-05-09T10:23:02;99980.69;;;22.77;68.22
61384;BME280;63511;49.346;8.798;2023-05-09T10:25:31;99979.78;;;22.75;64.72
61384;BME280;63511;49.346;8.798;2023-05-09T10:28:01;99974.78;;;22.84;65.26
61384;BME280;63511;49.346;8.798;2023-05-09T10:30:30;99965.53;;;23.03;64.21
61384;BME280;63511;49.346;8.798;2023-05-09T10:33:01;99963.72;;;22.95;65.37
61384;BME280;63511;49.346;8.798;2023-05-09T10:35:29;99953.59;;;23.13;65.56
61384;BME280;63511;49.346;8.798;2023-05-09T10:37:56;99952.63;;;23.02;65.74
61384;BME280;63511;49.346;8.798;2023-05-09T10:40:23;99947.47;;;23.02;67.63
61384;BME280;63511;49.346;8.798;2023-05-09T10:42:50;99929.91;;;23.46;65.54
61384;BME280;63511;49.346;8.798;2023-05-09T10:45:16;99926.75;;;23.80;62.82
61384;BME280;63511;49.346;8.798;2023-05-09T10:47:46;99927.25;;;23.40;63.60
61384;BME280;63511;49.346;8.798;2023-05-09T10:50:17;99920.31;;;23.31;60.92
61384;BME280;63511;49.346;8.798;2023-05-09T10:53:04;99915.31;;;23.46;63.98
61384;BME280;63511;49.346;8.798;2023-05-09T10:58:19;99905.72;;;23.35;64.85
61384;BME280;63511;49.346;8.798;2023-05-09T11:00:46;99889.00;;;23.93;60.70
61384;BME280;63511;49.346;8.798;2023-05-09T11:03:13;99890.66;;;23.83;62.23
61384;BME280;63511;49.346;8.798;2023-05-09T11:05:44;99894.00;;;23.73;63.50
61384;BME280;63511;49.346;8.798;2023-05-09T11:08:22;99887.06;;;23.60;63.16
61384;BME280;63511;49.346;8.798;2023-05-09T11:10:54;99872.78;;;24.09;62.22
61384;BME280;63511;49.346;8.798;2023-05-09T11:13:21;99867.50;;;23.94;61.51
61384;BME280;63511;49.346;8.798;2023-05-09T11:15:49;99863.97;;;23.80;59.49
61384;BME280;63511;49.346;8.798;2023-05-09T11:18:22;99859.34;;;24.92;56.84
61384;BME280;63511;49.346;8.798;2023-05-09T11:20:50;99864.16;;;24.10;58.30
61384;BME280;63511;49.346;8.798;2023-05-09T11:23:17;99858.13;;;24.08;59.51
61384;BME280;63511;49.346;8.798;2023-05-09T11:25:44;99856.22;;;23.72;59.92
61384;BME280;63511;49.346;8.798;2023-05-09T11:28:24;99855.09;;;23.44;60.87
61384;BME280;63511;49.346;8.798;2023-05-09T11:30:52;99845.31;;;24.20;56.34
61384;BME280;63511;49.346;8.798;2023-05-09T11:33:22;99847.44;;;23.46;61.63
61384;BME280;63511;49.346;8.798;2023-05-09T11:38:40;99834.81;;;23.87;59.24
61384;BME280;63511;49.346;8.798;2023-05-09T11:41:08;99820.88;;;23.57;60.75
61384;BME280;63511;49.346;8.798;2023-05-09T11:43:35;99823.69;;;23.97;58.12
61384;BME280;63511;49.346;8.798;2023-05-09T11:46:01;99821.09;;;23.97;60.98
61384;BME280;63511;49.346;8.798;2023-05-09T11:48:28;99822.13;;;24.37;58.38
61384;BME280;63511;49.346;8.798;2023-05-09T11:50:56;99812.78;;;24.78;56.59
61384;BME280;63511;49.346;8.798;2023-05-09T11:53:23;99805.09;;;24.95;54.66
61384;BME280;63511;49.346;8.798;2023-05-09T11:55:51;99804.22;;;24.93;55.95
61384;BME280;63511;49.346;8.798;2023-05-09T11:58:21;99805.00;;;24.65;57.34
61384;BME280;63511;49.346;8.798;2023-05-09T12:00:47;99799.06;;;25.02;58.80
61384;BME280;63511;49.346;8.798;2023-05-09T12:03:16;99792.09;;;24.69;57.06
61384;BME280;63511;49.346;8.798;2023-05-09T12:05:43;99786.00;;;24.35;55.22
61384;BME280;63511;49.346;8.798;2023-05-09T12:08:10;99782.63;;;24.50;57.61
61384;BME280;63511;49.346;8.798;2023-05-09T12:10:36;99782.63;;;24.65;54.18
61384;BME280;63511;49.346;8.798;2023-05-09T12:13:05;99771.50;;;25.10;55.07
61384;BME280;63511;49.346;8.798;2023-05-09T12:15:34;99767.97;;;24.56;54.75
61384;BME280;63511;49.346;8.798;2023-05-09T12:18:01;99762.88;;;24.94;52.24
61384;BME280;63511;49.346;8.798;2023-05-09T12:20:40;99751.66;;;25.38;52.66
61384;BME280;63511;49.346;8.798;2023-05-09T12:23:07;99758.53;;;24.75;53.50
61384;BME280;63511;49.346;8.798;2023-05-09T12:25:34;99757.66;;;24.50;54.79
61384;BME280;63511;49.346;8.798;2023-05-09T12:28:01;99738.75;;;24.94;55.56
61384;BME280;63511;49.346;8.798;2023-05-09T12:30:29;99746.44;;;24.56;57.03
61384;BME280;63511;49.346;8.798;2023-05-09T12:32:56;99737.84;;;24.77;55.92
61384;BME280;63511;49.346;8.798;2023-05-09T12:35:23;99734.47;;;25.01;52.63
61384;BME280;63511;49.346;8.798;2023-05-09T12:37:56;99731.88;;;24.94;53.12
61384;BME280;63511;49.346;8.798;2023-05-09T12:40:26;99721.53;;;25.02;53.21
61384;BME280;63511;49.346;8.798;2023-05-09T12:42:53;99712.94;;;25.08;53.09
61384;BME280;63511;49.346;8.798;2023-05-09T12:45:24;99705.84;;;25.76;52.16
61384;BME280;63511;49.346;8.798;2023-05-09T12:47:56;99702.56;;;24.83;52.94
61384;BME280;63511;49.346;8.798;2023-05-09T12:50:29;99699.13;;;24.86;52.38
61384;BME280;63511;49.346;8.798;2023-05-09T12:52:59;99697.44;;;24.95;53.71
61384;BME280;63511;49.346;8.798;2023-05-09T12:55:28;99694.81;;;24.42;54.69
61384;BME280;63511;49.346;8.798;2023-05-09T12:57:56;99690.50;;;24.37;53.98
61384;BME280;63511;49.346;8.798;2023-05-09T13:00:23;99687.09;;;24.54;56.36
61384;BME280;63511;49.346;8.798;2023-05-09T13:02:52;99680.97;;;24.13;55.49
61384;BME280;63511;49.346;8.798;2023-05-09T13:05:23;99675.03;;;24.64;56.12
61384;BME280;63511;49.346;8.798;2023-05-09T13:07:50;99675.84;;;24.31;55.19